createdAt,value
2022-11-27T00:02:08.283Z,1.20
2022-11-27T00:06:09.982Z,1.20
2022-11-27T00:10:12.364Z,1.20
2022-11-27T00:14:18.917Z,1.30
2022-11-27T00:18:19.596Z,1.30
2022-11-27T00:22:20.036Z,1.30
2022-11-27T00:26:20.974Z,1.30
2022-11-27T00:30:23.813Z,1.30
2022-11-27T00:34:23.902Z,1.30
2022-11-27T00:38:24.440Z,1.20
2022-11-27T00:42:24.573Z,1.10
2022-11-27T00:46:30.145Z,1.10
2022-11-27T00:50:32.063Z,1.00
2022-11-27T00:54:32.169Z,1.00
2022-11-27T00:58:32.659Z,0.90
2022-11-27T01:02:35.638Z,1.00
2022-11-27T01:06:36.242Z,0.90
2022-11-27T01:10:36.751Z,0.90
2022-11-27T01:14:37.669Z,0.80
2022-11-27T01:18:44.195Z,0.80
2022-11-27T01:22:44.314Z,0.70
2022-11-27T01:26:45.215Z,0.60
2022-11-27T01:30:45.782Z,0.50
2022-11-27T01:34:48.577Z,0.50
2022-11-27T01:38:48.656Z,0.50
2022-11-27T01:42:48.771Z,0.50
2022-11-27T01:46:53.145Z,0.50
2022-11-27T01:50:56.527Z,0.50
2022-11-27T01:55:02.631Z,0.50
2022-11-27T01:59:03.706Z,0.50
2022-11-27T02:03:04.116Z,0.50
2022-11-27T02:07:06.938Z,0.50
2022-11-27T02:11:15.761Z,0.50
2022-11-27T02:15:25.275Z,0.60
2022-11-27T02:19:43.637Z,0.60
2022-11-27T02:24:30.206Z,0.60
2022-11-27T02:28:47.449Z,0.50
2022-11-27T02:32:59.936Z,0.50
2022-11-27T02:37:09.767Z,0.40
2022-11-27T02:41:17.374Z,0.40
2022-11-27T02:45:24.835Z,0.30
2022-11-27T02:49:28.836Z,0.30
2022-11-27T02:53:38.017Z,0.40
2022-11-27T02:57:42.347Z,0.40
2022-11-27T03:01:48.711Z,0.50
2022-11-27T03:05:58.160Z,0.50
2022-11-27T03:10:05.963Z,0.40
2022-11-27T03:14:11.091Z,0.40
2022-11-27T03:18:25.466Z,0.50
2022-11-27T03:22:29.154Z,0.50
2022-11-27T03:26:29.655Z,0.60
2022-11-27T03:30:30.097Z,0.60
2022-11-27T03:34:31.149Z,0.60
2022-11-27T03:38:33.875Z,0.50
2022-11-27T03:42:46.632Z,0.40
2022-11-27T03:47:01.420Z,0.50
2022-11-27T03:51:13.019Z,0.40
2022-11-27T03:55:26.662Z,0.40
2022-11-27T03:59:33.390Z,0.30
2022-11-27T04:03:34.065Z,0.30
2022-11-27T04:07:34.259Z,0.30
2022-11-27T04:11:37.094Z,0.20
2022-11-27T04:15:37.288Z,0.20
2022-11-27T04:19:37.698Z,0.20
2022-11-27T04:23:38.566Z,0.30
2022-11-27T04:27:41.379Z,0.30
2022-11-27T04:31:41.489Z,0.30
2022-11-27T04:35:41.635Z,0.20
2022-11-27T04:39:41.793Z,0.20
2022-11-27T04:43:44.838Z,0.30
2022-11-27T04:47:45.114Z,0.30
2022-11-27T04:51:45.939Z,0.30
2022-11-27T04:55:46.174Z,0.30
2022-11-27T04:59:48.860Z,0.20
2022-11-27T05:03:51.009Z,0.20
2022-11-27T05:07:51.155Z,0.20
2022-11-27T05:11:51.457Z,0.20
2022-11-27T05:15:54.113Z,0.20
2022-11-27T05:19:54.532Z,0.10
2022-11-27T05:23:54.576Z,0.20
2022-11-27T05:27:55.759Z,0.20
2022-11-27T05:31:58.443Z,0.20
2022-11-27T05:35:58.623Z,0.10
2022-11-27T05:39:59.025Z,0.00
2022-11-27T05:43:59.180Z,0.00
2022-11-27T05:48:01.952Z,0.00
2022-11-27T05:52:02.115Z,0.00
2022-11-27T05:56:05.691Z,-0.10
2022-11-27T06:00:07.314Z,-0.10
2022-11-27T06:04:10.010Z,-0.20
2022-11-27T06:08:10.508Z,-0.10
2022-11-27T06:12:11.352Z,-0.20
2022-11-27T06:16:16.986Z,-0.30
2022-11-27T06:20:20.453Z,-0.30
2022-11-27T06:24:20.587Z,-0.20
2022-11-27T06:28:20.727Z,-0.10
2022-11-27T06:32:20.817Z,-0.10
2022-11-27T06:36:28.157Z,-0.10
2022-11-27T06:40:28.426Z,0.00
2022-11-27T06:44:28.677Z,0.10
2022-11-27T06:48:29.293Z,0.10
2022-11-27T06:52:34.678Z,0.10
2022-11-27T06:56:38.915Z,0.20
2022-11-27T07:00:39.295Z,0.20
2022-11-27T07:04:40.548Z,0.20
2022-11-27T07:08:44.299Z,0.30
2022-11-27T07:12:44.372Z,0.30
2022-11-27T07:16:44.610Z,0.30
2022-11-27T07:20:44.744Z,0.30
2022-11-27T07:24:47.473Z,0.40
2022-11-27T07:28:48.672Z,0.40
2022-11-27T07:32:48.805Z,0.50
2022-11-27T07:36:49.140Z,0.60
2022-11-27T07:40:53.903Z,0.60
2022-11-27T07:44:54.246Z,0.60
2022-11-27T07:48:54.748Z,0.70
2022-11-27T07:52:54.806Z,0.70
2022-11-27T07:56:57.440Z,0.80
2022-11-27T08:00:57.623Z,0.80
2022-11-27T08:04:57.894Z,0.90
2022-11-27T08:08:58.775Z,1.00
2022-11-27T08:13:01.739Z,1.00
2022-11-27T08:17:02.069Z,1.10
2022-11-27T08:21:03.688Z,1.10
2022-11-27T08:25:03.958Z,1.20
2022-11-27T08:29:06.731Z,1.30
2022-11-27T08:33:07.024Z,1.20
2022-11-27T08:37:07.369Z,1.20
2022-11-27T08:41:10.529Z,1.30
2022-11-27T08:45:13.910Z,1.30
2022-11-27T08:49:27.769Z,1.40
2022-11-27T08:53:28.052Z,1.40
2022-11-27T08:57:28.660Z,1.40
2022-11-27T09:01:32.179Z,1.60
2022-11-27T09:05:35.523Z,1.60
2022-11-27T09:09:35.975Z,1.60
2022-11-27T09:13:37.315Z,1.60
2022-11-27T09:17:37.433Z,1.60
2022-11-27T09:21:40.496Z,1.70
2022-11-27T09:25:42.087Z,1.80
2022-11-27T09:29:42.271Z,1.90
2022-11-27T09:33:44.358Z,1.90
2022-11-27T09:37:47.047Z,2.00
2022-11-27T09:41:52.231Z,2.10
2022-11-27T09:45:58.092Z,2.20
2022-11-27T09:50:05.917Z,2.20
2022-11-27T09:54:18.394Z,2.30
2022-11-27T09:58:24.659Z,2.30
2022-11-27T10:02:33.533Z,2.50
2022-11-27T10:06:41.507Z,2.50
2022-11-27T10:11:03.148Z,2.40
2022-11-27T10:15:13.424Z,2.50
2022-11-27T10:19:33.663Z,2.40
2022-11-27T10:23:48.773Z,2.40
2022-11-27T10:28:07.612Z,2.40
2022-11-27T10:32:46.966Z,2.40
2022-11-27T10:36:44.864Z,2.50
2022-11-27T10:40:54.920Z,2.40
2022-11-27T10:45:05.709Z,2.60
2022-11-27T10:49:05.996Z,2.60
2022-11-27T10:53:12.308Z,2.60
2022-11-27T10:57:43.235Z,2.70
2022-11-27T11:06:28.600Z,2.70
2022-11-27T11:11:16.436Z,2.70
2022-11-27T11:15:25.051Z,2.80
2022-11-27T11:19:41.444Z,2.80
2022-11-27T11:23:56.259Z,2.80
2022-11-27T11:27:56.888Z,2.80
2022-11-27T11:32:02.217Z,2.80
2022-11-27T11:36:14.252Z,2.90
2022-11-27T11:40:27.515Z,2.90
2022-11-27T11:44:35.527Z,2.90
2022-11-27T11:48:43.449Z,2.80
2022-11-27T11:53:02.154Z,2.90
2022-11-27T11:57:13.541Z,2.90
2022-11-27T12:01:54.318Z,2.90
2022-11-27T12:06:18.384Z,3.00
2022-11-27T12:10:30.612Z,3.00
2022-11-27T12:14:46.781Z,3.00
2022-11-27T12:19:19.148Z,3.00
2022-11-27T12:23:56.380Z,3.00
2022-11-27T12:28:25.051Z,3.00
2022-11-27T12:32:53.413Z,3.00
2022-11-27T12:37:31.159Z,3.00
2022-11-27T12:42:00.663Z,2.90
2022-11-27T12:46:13.023Z,2.90
2022-11-27T12:50:23.963Z,2.80
2022-11-27T12:54:30.611Z,2.80
2022-11-27T12:58:37.015Z,2.90
2022-11-27T13:02:49.308Z,2.90
2022-11-27T13:07:01.429Z,2.90
2022-11-27T13:11:09.489Z,2.90
2022-11-27T13:15:24.099Z,2.90
2022-11-27T13:19:35.421Z,2.90
2022-11-27T13:23:36.831Z,2.80
2022-11-27T13:27:40.497Z,2.80
2022-11-27T13:31:42.152Z,2.90
2022-11-27T13:35:46.161Z,2.90
2022-11-27T13:39:47.373Z,2.90
2022-11-27T13:43:50.580Z,2.90
2022-11-27T13:47:53.170Z,2.90
2022-11-27T13:52:16.439Z,2.80
2022-11-27T13:56:19.239Z,2.80
2022-11-27T14:00:20.847Z,2.80
2022-11-27T14:04:21.028Z,2.80
2022-11-27T14:08:31.918Z,2.90
2022-11-27T14:12:36.195Z,2.80
2022-11-27T14:16:39.643Z,2.90
2022-11-27T14:20:50.811Z,2.90
2022-11-27T14:24:57.892Z,2.80
2022-11-27T14:29:00.537Z,2.80
2022-11-27T14:33:00.870Z,2.70
2022-11-27T14:37:02.545Z,2.80
2022-11-27T14:41:20.033Z,2.70
2022-11-27T14:45:23.988Z,2.70
2022-11-27T14:49:30.977Z,2.70
2022-11-27T14:53:32.129Z,2.80
2022-11-27T14:57:35.142Z,2.70
2022-11-27T15:01:37.795Z,2.70
2022-11-27T15:05:41.200Z,2.70
2022-11-27T15:09:47.393Z,2.80
2022-11-27T15:13:56.971Z,2.80
2022-11-27T15:18:01.780Z,2.80
2022-11-27T15:22:02.520Z,2.70
2022-11-27T15:26:19.927Z,2.70
2022-11-27T15:30:26.152Z,2.70
2022-11-27T15:34:30.082Z,2.80
2022-11-27T15:38:30.278Z,2.70
2022-11-27T15:42:31.234Z,2.70
2022-11-27T15:46:38.255Z,2.60
2022-11-27T15:50:38.392Z,2.70
2022-11-27T15:54:38.598Z,2.60
2022-11-27T15:58:38.867Z,2.60
2022-11-27T16:02:42.441Z,2.60
2022-11-27T16:06:42.645Z,2.60
2022-11-27T16:10:43.758Z,2.60
2022-11-27T16:14:43.933Z,2.60
2022-11-27T16:18:46.949Z,2.60
2022-11-27T16:22:47.083Z,2.60
2022-11-27T16:26:50.099Z,2.60
2022-11-27T16:30:50.259Z,2.60
2022-11-27T16:34:53.276Z,2.60
2022-11-27T16:38:55.991Z,2.60
2022-11-27T16:42:57.812Z,2.60
2022-11-27T16:46:58.203Z,2.60
2022-11-27T16:51:06.170Z,2.60
2022-11-27T16:55:06.652Z,2.60
2022-11-27T16:59:11.584Z,2.50
2022-11-27T17:03:11.866Z,2.60
2022-11-27T17:07:14.583Z,2.50
2022-11-27T17:11:17.335Z,2.50
2022-11-27T17:15:17.519Z,2.50
2022-11-27T17:19:18.802Z,2.50
2022-11-27T17:23:21.507Z,2.60
2022-11-27T17:27:21.746Z,2.50
2022-11-27T17:31:24.752Z,2.50
2022-11-27T17:35:25.287Z,2.50
2022-11-27T17:39:28.964Z,2.50
2022-11-27T17:43:30.506Z,2.60
2022-11-27T17:47:30.616Z,2.60
2022-11-27T17:51:34.185Z,2.60
2022-11-27T17:55:37.071Z,2.60
2022-11-27T17:59:37.429Z,2.60
2022-11-27T18:03:37.962Z,2.60
2022-11-27T18:07:38.174Z,2.60
2022-11-27T18:11:41.973Z,2.70
2022-11-27T18:15:44.146Z,2.60
2022-11-27T18:19:44.325Z,2.60
2022-11-27T18:24:20.565Z,2.70
2022-11-27T18:28:10.149Z,2.70
2022-11-27T18:32:10.985Z,2.70
2022-11-27T18:36:13.306Z,2.70
2022-11-27T18:40:14.756Z,2.70
2022-11-27T18:44:18.478Z,2.70
2022-11-27T18:48:18.621Z,2.70
2022-11-27T18:52:19.007Z,2.60
2022-11-27T18:56:22.660Z,2.70
2022-11-27T19:00:25.749Z,2.70
2022-11-27T19:04:26.215Z,2.70
2022-11-27T19:08:27.012Z,2.70
2022-11-27T19:12:27.586Z,2.70
2022-11-27T19:16:34.134Z,2.70
2022-11-27T19:20:34.453Z,2.70
2022-11-27T19:24:34.677Z,2.70
2022-11-27T19:28:35.036Z,2.60
2022-11-27T19:32:38.125Z,2.60
2022-11-27T19:36:39.100Z,2.60
2022-11-27T19:40:41.580Z,2.60
2022-11-27T19:44:42.495Z,2.60
2022-11-27T19:48:45.839Z,2.60
2022-11-27T19:52:46.323Z,2.50
2022-11-27T19:56:46.747Z,2.60
2022-11-27T20:00:47.180Z,2.50
2022-11-27T20:04:50.582Z,2.50
2022-11-27T20:08:53.255Z,2.50
2022-11-27T20:12:54.488Z,2.50
2022-11-27T20:16:54.859Z,2.60
2022-11-27T20:21:08.512Z,2.60
2022-11-27T20:25:19.610Z,2.60
2022-11-27T20:29:20.912Z,2.70
2022-11-27T20:33:21.071Z,2.70
2022-11-27T20:37:23.775Z,2.70
2022-11-27T20:41:26.621Z,2.70
2022-11-27T20:45:29.079Z,2.60
2022-11-27T20:49:29.272Z,2.70
2022-11-27T20:53:31.963Z,2.70
2022-11-27T20:57:32.067Z,2.60
2022-11-27T21:01:35.520Z,2.60
2022-11-27T21:05:36.146Z,2.70
2022-11-27T21:09:40.071Z,2.70
2022-11-27T21:13:41.696Z,2.70
2022-11-27T21:17:42.161Z,2.70
2022-11-27T21:21:42.584Z,2.70
2022-11-27T21:25:45.480Z,2.70
2022-11-27T21:29:46.367Z,2.70
2022-11-27T21:33:51.968Z,2.60
2022-11-27T21:37:52.103Z,2.60
2022-11-27T21:41:57.788Z,2.70
2022-11-27T21:45:58.971Z,2.70
2022-11-27T21:49:59.369Z,2.60
2022-11-27T21:54:01.420Z,2.60
2022-11-27T21:58:04.207Z,2.60
2022-11-27T22:02:04.637Z,2.60
2022-11-27T22:06:12.612Z,2.60
2022-11-27T22:10:14.638Z,2.70
2022-11-27T22:14:19.161Z,2.70
2022-11-27T22:18:19.346Z,2.70
2022-11-27T22:22:19.692Z,2.70
2022-11-27T22:26:23.047Z,2.60
2022-11-27T22:30:29.497Z,2.70
2022-11-27T22:34:29.608Z,2.60
2022-11-27T22:38:29.702Z,2.60
2022-11-27T22:42:30.260Z,2.60
2022-11-27T22:46:36.959Z,2.60
2022-11-27T22:50:37.113Z,2.60
2022-11-27T22:54:37.281Z,2.60
2022-11-27T22:58:41.630Z,2.60
2022-11-27T23:02:44.802Z,2.60
2022-11-27T23:06:47.481Z,2.60
2022-11-27T23:10:48.709Z,2.60
2022-11-27T23:14:48.778Z,2.60
2022-11-27T23:18:52.973Z,2.60
2022-11-27T23:22:53.184Z,2.60
2022-11-27T23:26:53.408Z,2.60
2022-11-27T23:31:15.344Z,2.70
2022-11-27T23:35:16.287Z,2.70
2022-11-27T23:39:17.116Z,2.70
2022-11-27T23:43:17.216Z,2.70
2022-11-27T23:47:17.242Z,2.60
2022-11-27T23:51:23.590Z,2.70
2022-11-27T23:55:23.726Z,2.60
2022-11-27T23:59:23.798Z,2.60
